Weather reports worldwide

Advertisment
Jerusalem Centre, Israel (40183): temperature & dewpoint: 31.05.2020 20:00:00 - 06.06.2020 20:00:00 (IDT)Jerusalem Centre, Israel (40183): wind speed: 31.05.2020 20:00:00 - 06.06.2020 20:00:00 (IDT)Jerusalem Centre, Israel (40183): wind direction: 31.05.2020 20:00:00 - 06.06.2020 20:00:00 (IDT)
Date & Time tt [°C] td [°C] ff [km/h] ff [kn] dd
06.06.2020 20:00:00 25,2 12,0 13 7 N
06.06.2020 19:00:00 26,0 15,4 13 7 NW
06.06.2020 18:00:00 27,5 15,3 15 8 NW
06.06.2020 17:00:00 28,2 15,7 10 5 NW
06.06.2020 16:00:00 28,3 16,7 14 8 NW
06.06.2020 15:00:00 29,6 16,1 11 6 WNW
06.06.2020 14:00:00 28,8 15,4 13 7 WNW
06.06.2020 13:00:00 29,1 14,5 13 7 NW
06.06.2020 12:00:00 30,2 11,9 8 4 NNW
06.06.2020 11:00:00 29,0 5,6 3 1 E
06.06.2020 10:00:00 28,0 4,4 3 2 ENE
06.06.2020 09:00:00 26,4 2,9 8 5 ENE
06.06.2020 08:00:00 25,0 2,6 8 5 N
06.06.2020 07:00:00 23,7 -1,7 10 5 NNW
06.06.2020 06:00:00 22,1 -3,0 9 5 NNW
06.06.2020 05:00:00 21,8 -7,0 10 6 NNW
06.06.2020 04:00:00 21,5 -6,2 11 6 NW
06.06.2020 03:00:00 21,7 -6,8 9 5 NW
06.06.2020 02:00:00 21,8 -6,1 10 5 NW
06.06.2020 01:00:00 21,5 -4,6 11 6 NW
06.06.2020 00:00:00 21,2 -1,8 11 6 NW
05.06.2020 23:00:00 21,1 0,0 13 7 NW
05.06.2020 22:00:00 21,0 3,2 15 8 NW
05.06.2020 21:00:00 20,8 7,1 13 7 NW
05.06.2020 20:00:00 21,6 8,8 13 7 WNW
05.06.2020 19:00:00 23,3 8,8 13 7 WNW
05.06.2020 18:00:00 25,0 9,0 15 8 WNW
05.06.2020 17:00:00 26,1 10,6 15 8 WNW
05.06.2020 16:00:00 26,8 12,2 18 10 NW
05.06.2020 15:00:00 27,6 12,6 13 7 NNW
05.06.2020 14:00:00 28,1 10,0 10 5 N
05.06.2020 13:00:00 27,1 9,7 10 6 NNW
05.06.2020 12:00:00 27,7 8,3 5 3 N
05.06.2020 11:00:00 26,3 6,2 6 3 N
05.06.2020 10:00:00 25,5 5,8 5 3 NW
05.06.2020 09:00:00 23,8 5,7 4 2 NNW
05.06.2020 08:00:00 21,3 4,4 9 5 N
05.06.2020 07:00:00 19,7 5,3 6 4 NNW
05.06.2020 06:00:00 18,8 6,0 16 8 NW
05.06.2020 05:00:00 18,5 5,4 8 4 NNW
05.06.2020 04:00:00 18,7 6,6 10 5 NW
05.06.2020 03:00:00 19,2 8,1 10 6 NW
05.06.2020 02:00:00 19,5 7,9 12 6 NW
05.06.2020 01:00:00 19,4 7,9 14 7 NNW
05.06.2020 00:00:00 19,8 7,9 10 5 NNW
04.06.2020 23:00:00 19,7 7,9 13 7 NNW
04.06.2020 22:00:00 19,7 8,9 14 7 NW
04.06.2020 21:00:00 20,0 10,2 11 6 NNW
04.06.2020 20:00:00 20,5 10,7 15 8 NW
04.06.2020 19:00:00 22,3 11,0 15 8 NW
04.06.2020 18:00:00 24,3 11,1 10 6 WNW
04.06.2020 17:00:00 25,0 11,2 11 6 NW
04.06.2020 16:00:00 26,1 9,8 11 6 NNW
04.06.2020 15:00:00 27,1 7,4 9 5 WNW
04.06.2020 14:00:00 27,3 6,6 6 4 ESE
04.06.2020 13:00:00 26,0 6,6 7 4 ESE
04.06.2020 12:00:00 25,8 6,5 7 4 E
04.06.2020 11:00:00 25,4 5,7 4 2 S
04.06.2020 10:00:00 24,3 5,6 6 3 W
04.06.2020 09:00:00 21,9 5,5 6 4 NE
04.06.2020 08:00:00 20,6 2,8 7 4 N
04.06.2020 07:00:00 19,1 6,0 5 3 NE
04.06.2020 06:00:00 16,9 6,1 8 4 NNW
04.06.2020 05:00:00 17,0 6,2 5 3 NW
04.06.2020 04:00:00 17,2 6,2 9 5 NW
04.06.2020 03:00:00 17,1 5,6 6 3 WNW
04.06.2020 02:00:00 17,1 5,8 9 5 WNW
04.06.2020 01:00:00 17,0 6,2 8 5 W
04.06.2020 00:00:00 16,9 5,8 14 8 W
03.06.2020 23:00:00 16,7 5,5 20 11 W
03.06.2020 22:00:00 16,5 6,2 17 9 W
03.06.2020 21:00:00 16,5 6,8 24 13 W
03.06.2020 20:00:00 17,3 7,0 24 13 W
03.06.2020 19:00:00 19,1 6,9 22 12 W
03.06.2020 18:00:00 20,4 5,6 23 13 W
03.06.2020 17:00:00 21,6 7,8 23 12 W
03.06.2020 16:00:00 22,4 9,3 17 9 WSW
03.06.2020 15:00:00 22,9 8,5 21 12 W
03.06.2020 14:00:00 23,3 7,9 15 8 W
03.06.2020 13:00:00 22,5 7,5 13 7 WSW
03.06.2020 12:00:00 21,4 8,1 10 6 WSW
03.06.2020 11:00:00 20,2 8,2 9 5 W
03.06.2020 10:00:00 18,7 7,8 13 7 W
03.06.2020 09:00:00 17,8 9,9 8 4 W
03.06.2020 08:00:00 16,3 10,5 6 4 SW
03.06.2020 07:00:00 14,6 11,9 11 6 WSW
03.06.2020 06:00:00 14,1 12,2 5 3 WSW
03.06.2020 05:00:00 13,9 12,7 9 5 W
03.06.2020 04:00:00 14,1 12,4 15 8 W
03.06.2020 03:00:00 14,4 12,2 9 5 WNW
03.06.2020 02:00:00 14,3 12,7 9 5 W
03.06.2020 01:00:00 14,7 12,5 10 6 WNW
03.06.2020 00:00:00 14,8 12,3 10 5 WNW
02.06.2020 23:00:00 15,1 11,6 9 5 WNW
02.06.2020 22:00:00 15,1 12,8 18 10 WNW
02.06.2020 21:00:00 15,6 12,7 11 6 W
02.06.2020 20:00:00 15,9 12,5 18 10 W
02.06.2020 19:00:00 17,8 10,9 21 12 W
02.06.2020 18:00:00 19,1 9,8 30 16 W
02.06.2020 17:00:00 20,9 9,9 29 16 WNW
02.06.2020 16:00:00 21,7 10,5 30 16 W
02.06.2020 15:00:00 22,3 10,3 29 15 W
02.06.2020 14:00:00 22,2 14,5 25 13 W
02.06.2020 13:00:00 24,7 14,8 20 11 W
02.06.2020 12:00:00 26,3 12,2 17 9 WSW
02.06.2020 11:00:00 26,2 7,0 18 10 W
02.06.2020 10:00:00 26,9 5,9 12 6 WSW
02.06.2020 09:00:00 26,4 3,1 14 7 SSE
02.06.2020 08:00:00 25,9 3,4 12 6 SSE
02.06.2020 07:00:00 23,9 3,7 10 5 S
02.06.2020 06:00:00 22,5 3,5 9 5 S
02.06.2020 05:00:00 22,2 4,2 8 5 S
02.06.2020 04:00:00 21,6 5,2 5 3 SSE
02.06.2020 03:00:00 22,2 4,7 9 5 S
02.06.2020 02:00:00 22,9 4,3 8 4 S
02.06.2020 01:00:00 22,4 5,5 5 3 SSW
02.06.2020 00:00:00 22,4 7,7 6 4 SW
01.06.2020 23:00:00 22,6 10,8 4 2 SSW
01.06.2020 22:00:00 23,7 10,4 3 1 W
01.06.2020 21:00:00 23,6 12,7 2 1 W
01.06.2020 20:00:00 23,5 13,1 4 2 NW
01.06.2020 19:00:00 25,4 10,7 6 4 NW
01.06.2020 18:00:00 26,5 9,0 10 6 WNW
01.06.2020 17:00:00 27,1 9,2 11 6 NW
01.06.2020 16:00:00 27,2 7,6 9 5 NW
01.06.2020 15:00:00 26,7 6,2 8 5 NNW
01.06.2020 14:00:00 26,6 6,7 14 8 NW
01.06.2020 13:00:00 26,4 10,1 7 4 S
01.06.2020 12:00:00 24,2 10,3 6 3 E
01.06.2020 11:00:00 23,0 10,4 8 4 ESE
01.06.2020 10:00:00 21,0 2,3 5 3 NNW
01.06.2020 09:00:00 18,5 5,8 8 5 NNE
01.06.2020 08:00:00 16,4 10,3 4 2 NNW
01.06.2020 07:00:00 14,3 12,0 12 7 NW
01.06.2020 06:00:00 13,4 11,8 12 6 NW
01.06.2020 05:00:00 13,3 11,9 16 8 NW
01.06.2020 04:00:00 13,2 11,7 18 10 NW
01.06.2020 03:00:00 13,2 11,7 20 11 NW
01.06.2020 02:00:00 13,4 11,3 14 8 WNW
01.06.2020 01:00:00 13,4 10,1 11 6 NW
01.06.2020 00:00:00 13,7 9,2 15 8 W
31.05.2020 23:00:00 14,5 7,9 19 11 WNW
31.05.2020 22:00:00 14,7 10,4 16 9 W
31.05.2020 21:00:00 15,4 11,2 16 9 W
31.05.2020 20:00:00 16,7 10,3 16 8 NW

tt = temperature
td = dewpoint
ff = wind speed
dd = wind direction

Next stations